Time;durP1;ratioP1;P1;durP2;ratioP2;P2;SDS_P1;SDS_P2;PMS_P1;PMS_P2;Temp;Humidity;BMP_temperature;BMP_pressure;BME280_temperature;BME280_humidity;BME280_pressure;Samples;Min_cycle;Max_cycle;Signal;HPM_P1;HPM_P2
2021/04/19 00:00:15;;;;;;;15.33;13.03;;;10.80;99.90;;;;;;5055092;28;20191;-67
2021/04/19 00:02:42;;;;;;;13.80;12.40;;;10.80;99.90;;;;;;5054940;28;20413;-67
2021/04/19 00:05:11;;;;;;;14.97;12.80;;;10.80;99.90;;;;;;5055506;28;20395;-67
2021/04/19 00:07:37;;;;;;;14.13;12.70;;;10.70;99.90;;;;;;5055508;28;20450;-67
2021/04/19 00:10:06;;;;;;;13.90;12.60;;;10.70;99.90;;;;;;5055110;28;20935;-67
2021/04/19 00:12:32;;;;;;;15.50;13.40;;;10.70;99.90;;;;;;5053851;28;20156;-68
2021/04/19 00:14:58;;;;;;;14.90;13.30;;;10.70;99.90;;;;;;5055156;28;20431;-67
2021/04/19 00:17:23;;;;;;;14.10;12.70;;;10.60;99.90;;;;;;5054962;28;20426;-67
2021/04/19 00:19:49;;;;;;;15.20;13.80;;;10.60;99.90;;;;;;5055119;28;20496;-67
2021/04/19 00:22:14;;;;;;;14.97;13.37;;;10.60;99.90;;;;;;5055311;28;20165;-67
2021/04/19 00:24:40;;;;;;;15.20;13.70;;;10.60;99.90;;;;;;5054763;28;20160;-67
2021/04/19 00:27:06;;;;;;;15.40;13.73;;;10.50;99.90;;;;;;5054489;28;20677;-67
2021/04/19 00:29:32;;;;;;;15.30;13.87;;;10.50;99.90;;;;;;5054885;28;20667;-67
2021/04/19 00:31:57;;;;;;;15.63;14.13;;;10.50;99.90;;;;;;5054641;28;20391;-67
2021/04/19 00:34:23;;;;;;;17.40;14.03;;;10.50;99.90;;;;;;5055071;28;20195;-67
2021/04/19 00:36:49;;;;;;;15.17;13.57;;;10.50;99.90;;;;;;5054943;28;20667;-67
2021/04/19 00:39:14;;;;;;;15.83;14.13;;;10.40;99.90;;;;;;5054566;28;20617;-67
2021/04/19 00:41:40;;;;;;;16.93;15.13;;;10.40;99.90;;;;;;5054298;28;20624;-67
2021/04/19 00:44:05;;;;;;;15.80;14.20;;;10.40;99.90;;;;;;5054642;28;20171;-67
2021/04/19 00:46:31;;;;;;;15.83;14.43;;;10.40;99.90;;;;;;5054401;28;20192;-68
2021/04/19 00:48:57;;;;;;;15.83;13.30;;;10.30;99.90;;;;;;5054757;28;20156;-67
2021/04/19 00:51:23;;;;;;;15.30;13.23;;;10.30;99.90;;;;;;5054703;28;20391;-67
2021/04/19 00:53:49;;;;;;;15.73;14.07;;;10.30;99.90;;;;;;5054131;28;20215;-67
2021/04/19 00:56:14;;;;;;;15.93;14.43;;;10.30;99.90;;;;;;5054134;28;20525;-67
2021/04/19 00:58:41;;;;;;;16.07;14.47;;;10.30;99.90;;;;;;5054123;28;20927;-67
2021/04/19 01:01:08;;;;;;;14.57;13.20;;;10.30;99.90;;;;;;5054226;28;20405;-67
2021/04/19 01:03:34;;;;;;;16.07;14.50;;;10.30;99.90;;;;;;5054552;28;20869;-68
2021/04/19 01:06:00;;;;;;;14.97;13.50;;;10.30;99.90;;;;;;5054324;28;20456;-67
2021/04/19 01:08:26;;;;;;;15.03;13.67;;;10.30;99.90;;;;;;5054175;28;20751;-67
2021/04/19 01:10:51;;;;;;;16.00;14.50;;;10.30;99.90;;;;;;5053875;28;20254;-67
2021/04/19 01:13:17;;;;;;;15.67;14.10;;;10.30;99.90;;;;;;5053871;28;20277;-68
2021/04/19 01:15:43;;;;;;;19.27;15.43;;;10.30;99.90;;;;;;5053883;28;20160;-67
2021/04/19 01:18:08;;;;;;;15.53;14.03;;;10.30;99.90;;;;;;5054232;28;20524;-67
2021/04/19 01:20:37;;;;;;;15.33;13.70;;;10.30;99.90;;;;;;5054190;28;20191;-67
2021/04/19 01:23:03;;;;;;;22.20;15.10;;;10.30;99.90;;;;;;5053684;28;20218;-68
2021/04/19 01:25:29;;;;;;;17.10;14.80;;;10.30;99.90;;;;;;5053576;28;20430;-67
2021/04/19 01:27:56;;;;;;;18.33;16.40;;;10.40;99.90;;;;;;5053683;28;20517;-67
2021/04/19 01:30:25;;;;;;;17.00;15.33;;;10.40;99.90;;;;;;5053529;28;20391;-67
2021/04/19 01:32:51;;;;;;;17.27;15.50;;;10.30;99.90;;;;;;5053974;28;20386;-68
2021/04/19 01:35:18;;;;;;;16.03;14.43;;;10.40;99.90;;;;;;5053620;28;20409;-67
2021/04/19 01:37:44;;;;;;;14.83;13.43;;;10.30;99.90;;;;;;5053427;28;20191;-67
2021/04/19 01:40:13;;;;;;;14.67;12.93;;;10.30;99.90;;;;;;5053378;28;20986;-67
2021/04/19 01:42:38;;;;;;;15.97;14.27;;;10.30;99.90;;;;;;5053331;28;20754;-67
2021/04/19 01:45:06;;;;;;;16.67;14.17;;;10.30;99.90;;;;;;5053126;28;20420;-67
2021/04/19 01:47:32;;;;;;;14.07;12.83;;;10.30;99.90;;;;;;5053986;28;20195;-68
2021/04/19 01:49:58;;;;;;;18.60;14.10;;;10.30;99.90;;;;;;5053086;28;20468;-67
2021/04/19 01:52:23;;;;;;;15.90;13.90;;;10.30;99.90;;;;;;5053111;28;20895;-67
2021/04/19 01:54:49;;;;;;;15.57;12.90;;;10.30;99.90;;;;;;5053089;28;20242;-67
2021/04/19 01:57:14;;;;;;;19.20;15.53;;;10.30;99.90;;;;;;5052676;28;20192;-67
2021/04/19 01:59:41;;;;;;;14.83;13.37;;;10.30;99.90;;;;;;5052975;28;20196;-67
2021/04/19 02:02:31;;;;;;;15.60;12.83;;;10.30;99.90;;;;;;5053433;28;20212;-68
2021/04/19 02:05:23;;;;;;;14.77;13.40;;;10.30;99.90;;;;;;5052161;28;20438;-67
2021/04/19 02:10:38;;;;;;;16.33;14.70;;;10.30;99.90;;;;;;5131292;27;20499;-68
2021/04/19 02:13:43;;;;;;;15.37;13.87;;;10.20;99.90;;;;;;5131161;27;20387;-68
2021/04/19 02:16:27;;;;;;;16.10;14.50;;;10.20;99.90;;;;;;5147658;27;20395;-68
2021/04/19 02:19:04;;;;;;;17.50;15.67;;;10.20;99.90;;;;;;5118214;27;20413;-68
2021/04/19 02:21:50;;;;;;;15.27;13.77;;;10.10;99.90;;;;;;5110630;28;20802;-68
2021/04/19 02:24:21;;;;;;;16.83;15.13;;;10.10;99.90;;;;;;5110469;28;20457;-68
2021/04/19 02:26:53;;;;;;;17.57;15.73;;;10.10;99.90;;;;;;5110347;28;20380;-68
2021/04/19 02:29:26;;;;;;;18.13;16.33;;;10.10;99.90;;;;;;5110371;28;20435;-68
2021/04/19 02:31:56;;;;;;;20.60;18.53;;;10.00;99.90;;;;;;5110494;28;20404;-68
2021/04/19 02:34:23;;;;;;;19.40;17.50;;;10.00;99.90;;;;;;5111122;28;20420;-68
2021/04/19 02:36:51;;;;;;;21.40;19.20;;;9.90;99.90;;;;;;5110289;28;20867;-68
2021/04/19 02:39:20;;;;;;;20.30;18.40;;;9.90;99.90;;;;;;5110723;28;20423;-70
2021/04/19 02:41:50;;;;;;;21.97;19.77;;;9.90;99.90;;;;;;5110230;28;20398;-70
2021/04/19 02:44:16;;;;;;;22.23;20.10;;;9.90;99.90;;;;;;5110356;28;20482;-70
2021/04/19 02:46:43;;;;;;;22.87;20.80;;;9.90;99.90;;;;;;5110086;28;20395;-71
2021/04/19 02:49:09;;;;;;;21.23;19.23;;;9.90;99.90;;;;;;5110278;28;20492;-71
2021/04/19 02:51:38;;;;;;;23.10;20.80;;;9.90;99.90;;;;;;5110636;28;20874;-71
2021/04/19 02:54:04;;;;;;;23.47;21.10;;;9.90;99.90;;;;;;5109955;28;20390;-71
2021/04/19 02:56:34;;;;;;;31.03;22.67;;;9.90;99.90;;;;;;5109843;28;20875;-71
2021/04/19 02:59:04;;;;;;;24.97;22.37;;;9.80;99.90;;;;;;5109916;28;20478;-71
2021/04/19 03:01:33;;;;;;;24.40;22.17;;;9.80;99.90;;;;;;5109826;28;20442;-70
2021/04/19 03:04:05;;;;;;;27.00;24.27;;;9.80;99.90;;;;;;5109892;28;20397;-71
2021/04/19 03:06:31;;;;;;;28.37;25.63;;;9.80;99.90;;;;;;5109696;28;20402;-71
2021/04/19 03:09:00;;;;;;;26.30;23.80;;;9.70;99.90;;;;;;5114438;28;20465;-71
2021/04/19 03:14:05;;;;;;;27.10;24.40;;;9.70;99.90;;;;;;5152139;27;20561;-71
2021/04/19 03:16:33;;;;;;;26.30;23.90;;;9.60;99.90;;;;;;5152102;27;20397;-71
2021/04/19 03:19:01;;;;;;;26.73;24.13;;;9.60;99.90;;;;;;5152060;27;20868;-71
2021/04/19 03:21:27;;;;;;;27.20;24.43;;;9.60;99.90;;;;;;5151866;27;20437;-71
2021/04/19 03:23:57;;;;;;;27.67;24.90;;;9.50;99.90;;;;;;5151884;27;20875;-71
2021/04/19 03:26:26;;;;;;;28.73;25.93;;;9.50;99.90;;;;;;5151776;27;20423;-71
2021/04/19 03:28:53;;;;;;;28.60;25.90;;;9.50;99.90;;;;;;5152610;27;20397;-71
2021/04/19 03:31:23;;;;;;;30.77;27.63;;;9.50;99.90;;;;;;5151811;27;20484;-71
2021/04/19 03:33:52;;;;;;;31.70;28.67;;;9.50;99.90;;;;;;5151478;27;20515;-71
2021/04/19 03:36:20;;;;;;;30.50;27.40;;;9.50;99.90;;;;;;5151430;27;20416;-71
2021/04/19 03:38:47;;;;;;;31.40;28.40;;;9.50;99.90;;;;;;5151659;27;20676;-71
2021/04/19 03:41:15;;;;;;;31.83;28.80;;;9.50;99.90;;;;;;5151378;27;20891;-71
2021/04/19 03:43:48;;;;;;;31.27;28.17;;;9.50;99.90;;;;;;5151084;27;20415;-71
2021/04/19 03:46:15;;;;;;;33.10;29.70;;;9.50;99.90;;;;;;5151560;27;20392;-71
2021/04/19 03:48:43;;;;;;;31.43;28.43;;;9.40;99.90;;;;;;5151280;27;20422;-72
2021/04/19 03:51:12;;;;;;;31.57;28.57;;;9.40;99.90;;;;;;5151049;27;20764;-71
2021/04/19 03:53:39;;;;;;;33.87;30.67;;;9.40;99.90;;;;;;5151164;27;20470;-71
2021/04/19 03:56:06;;;;;;;30.87;28.07;;;9.30;99.90;;;;;;5151099;27;20409;-71
2021/04/19 03:58:34;;;;;;;32.20;29.00;;;9.30;99.90;;;;;;5151145;27;20842;-71
2021/04/19 04:01:03;;;;;;;33.07;29.20;;;9.30;99.90;;;;;;5150690;27;20412;-71
2021/04/19 04:03:30;;;;;;;34.70;31.30;;;9.30;99.90;;;;;;5131871;27;20448;-71
2021/04/19 04:05:58;;;;;;;34.00;30.70;;;9.30;99.90;;;;;;5130320;28;20422;-71
2021/04/19 04:08:25;;;;;;;35.57;32.07;;;9.30;99.90;;;;;;5130159;28;20408;-71
2021/04/19 04:10:51;;;;;;;36.83;33.30;;;9.30;99.90;;;;;;5130653;28;20395;-71
2021/04/19 04:13:19;;;;;;;38.63;34.93;;;9.20;99.90;;;;;;5130025;28;20521;-71
2021/04/19 04:15:54;;;;;;;36.60;33.07;;;9.20;99.90;;;;;;5131156;28;20392;-71
2021/04/19 04:18:20;;;;;;;36.37;32.90;;;9.20;99.90;;;;;;5130726;27;20931;-71
2021/04/19 04:20:47;;;;;;;39.70;35.80;;;9.20;99.90;;;;;;5130169;28;20393;-71
2021/04/19 04:23:13;;;;;;;40.00;35.93;;;9.20;99.90;;;;;;5129295;28;20552;-71
2021/04/19 04:25:40;;;;;;;38.87;35.27;;;9.10;99.90;;;;;;5115884;28;20401;-71
2021/04/19 04:28:06;;;;;;;38.30;34.40;;;9.20;99.90;;;;;;5116485;28;20431;-71
2021/04/19 04:30:34;;;;;;;36.23;32.60;;;9.20;99.90;;;;;;5116956;28;20404;-71
2021/04/19 04:33:02;;;;;;;39.13;35.17;;;9.10;99.90;;;;;;5116087;28;20491;-71
2021/04/19 04:35:28;;;;;;;38.43;34.60;;;9.10;99.90;;;;;;5116706;27;20550;-71
2021/04/19 04:37:54;;;;;;;37.57;33.57;;;9.20;99.90;;;;;;5116496;28;20807;-71
2021/04/19 04:40:20;;;;;;;38.17;34.20;;;9.20;99.90;;;;;;5116151;28;20398;-71
2021/04/19 04:42:49;;;;;;;38.87;34.70;;;9.20;99.90;;;;;;5116085;28;20164;-71
2021/04/19 04:45:14;;;;;;;38.17;34.27;;;9.20;99.90;;;;;;5116831;28;20169;-71
2021/04/19 04:47:48;;;;;;;37.93;34.07;;;9.20;99.90;;;;;;5115930;28;20407;-71
2021/04/19 04:50:19;;;;;;;38.03;34.03;;;9.20;99.90;;;;;;5115771;28;20411;-71
2021/04/19 04:55:23;;;;;;;31.77;28.60;;;9.20;99.90;;;;;;5131583;27;20559;-71
2021/04/19 04:57:49;;;;;;;33.00;29.73;;;9.30;99.90;;;;;;5131693;27;20895;-71
2021/04/19 05:00:18;;;;;;;33.23;29.83;;;9.20;99.90;;;;;;5132081;27;20472;-71
2021/04/19 05:02:46;;;;;;;34.60;31.30;;;9.20;99.90;;;;;;5118996;27;20409;-71
2021/04/19 05:05:14;;;;;;;35.93;32.33;;;9.20;99.90;;;;;;5110697;28;20475;-71
2021/04/19 05:07:41;;;;;;;36.33;31.50;;;9.20;99.90;;;;;;5113610;28;20413;-71
2021/04/19 05:10:08;;;;;;;34.67;31.40;;;9.20;99.90;;;;;;5131266;27;20826;-71
2021/04/19 05:12:33;;;;;;;33.03;29.60;;;9.20;99.90;;;;;;5131882;27;20391;-71
2021/04/19 05:15:01;;;;;;;32.53;29.30;;;9.20;99.90;;;;;;5131480;27;20445;-71
2021/04/19 05:17:27;;;;;;;32.83;28.93;;;9.20;99.90;;;;;;5131047;27;20186;-71
2021/04/19 05:19:53;;;;;;;31.77;28.63;;;9.20;99.90;;;;;;5130836;27;20388;-71
2021/04/19 05:22:20;;;;;;;32.03;28.70;;;9.20;99.90;;;;;;5131011;27;20394;-71
2021/04/19 05:24:45;;;;;;;31.77;28.20;;;9.20;99.90;;;;;;5130082;27;20413;-71
2021/04/19 05:27:12;;;;;;;29.53;26.43;;;9.20;99.90;;;;;;5131689;27;20757;-71
2021/04/19 05:29:39;;;;;;;30.90;26.23;;;9.20;99.90;;;;;;5131356;27;20161;-71
2021/04/19 05:32:07;;;;;;;26.00;23.33;;;9.20;99.90;;;;;;5131005;27;20765;-71
2021/04/19 05:34:32;;;;;;;26.60;23.57;;;9.20;99.90;;;;;;5130765;27;20439;-71
2021/04/19 05:37:00;;;;;;;32.40;28.90;;;9.20;99.90;;;;;;5130864;27;20389;-71
2021/04/19 05:39:26;;;;;;;27.70;25.10;;;9.20;99.90;;;;;;5130438;27;20157;-71
2021/04/19 05:41:52;;;;;;;26.50;23.67;;;9.20;99.90;;;;;;5130583;27;20773;-71
2021/04/19 05:44:18;;;;;;;25.97;23.17;;;9.20;99.90;;;;;;5130963;27;20201;-71
2021/04/19 05:46:45;;;;;;;25.53;22.83;;;9.10;99.90;;;;;;5130464;27;20877;-71
2021/04/19 05:49:10;;;;;;;23.27;20.97;;;9.20;99.90;;;;;;5130421;28;20447;-71
2021/04/19 05:51:41;;;;;;;23.87;21.30;;;9.20;99.90;;;;;;5130384;27;20882;-71
2021/04/19 05:54:09;;;;;;;22.17;19.97;;;9.20;99.90;;;;;;5130146;28;20232;-71
2021/04/19 05:59:17;;;;;;;21.20;19.00;;;9.20;99.90;;;;;;5063387;28;20553;-71
2021/04/19 06:01:48;;;;;;;21.80;19.43;;;9.30;99.90;;;;;;5050380;28;20414;-71
2021/04/19 06:04:51;;;;;;;19.27;17.30;;;9.30;99.90;;;;;;5050234;28;20430;-71
2021/04/19 06:10:04;;;;;;;17.00;15.30;;;9.20;99.90;;;;;;5089786;28;20384;-70
2021/04/19 06:12:35;;;;;;;17.63;15.83;;;9.40;99.90;;;;;;5091273;28;20162;-70
2021/04/19 06:15:13;;;;;;;18.70;16.90;;;9.40;99.90;;;;;;5090364;28;20388;-70
2021/04/19 06:17:42;;;;;;;17.27;15.73;;;9.40;99.90;;;;;;5071203;28;20413;-70
2021/04/19 06:20:09;;;;;;;18.47;16.57;;;9.40;99.90;;;;;;5070225;28;20871;-70
2021/04/19 06:22:35;;;;;;;19.80;17.90;;;9.40;99.90;;;;;;5070134;28;20393;-70
2021/04/19 06:25:01;;;;;;;18.87;17.03;;;9.50;99.90;;;;;;5070622;28;20700;-70
2021/04/19 06:27:27;;;;;;;19.30;17.17;;;9.50;99.90;;;;;;5070660;28;20396;-70
2021/04/19 06:29:53;;;;;;;19.47;17.60;;;9.50;99.90;;;;;;5070073;28;20536;-70
2021/04/19 06:32:22;;;;;;;17.63;16.03;;;9.50;99.90;;;;;;5070752;28;20931;-70
2021/04/19 06:34:49;;;;;;;17.93;16.33;;;9.50;99.90;;;;;;5069630;28;20401;-70
2021/04/19 06:37:16;;;;;;;17.33;15.83;;;9.60;99.90;;;;;;5069580;28;20383;-70
2021/04/19 06:39:42;;;;;;;16.00;14.30;;;9.50;99.90;;;;;;5070396;28;20475;-71
2021/04/19 06:42:08;;;;;;;16.67;15.07;;;9.50;99.90;;;;;;5069976;28;20429;-70
2021/04/19 06:44:35;;;;;;;14.63;13.20;;;9.50;99.90;;;;;;5069782;28;20164;-70
2021/04/19 06:47:00;;;;;;;16.37;14.87;;;9.50;99.90;;;;;;5069187;28;20421;-70
2021/04/19 06:49:26;;;;;;;14.30;12.90;;;9.50;99.90;;;;;;5069877;28;20503;-70
2021/04/19 06:51:55;;;;;;;14.10;12.60;;;9.60;99.90;;;;;;5069335;28;20178;-70
2021/04/19 06:54:22;;;;;;;14.90;13.43;;;9.50;99.90;;;;;;5070294;28;20413;-70
2021/04/19 06:56:49;;;;;;;17.53;15.20;;;9.60;99.90;;;;;;5069981;28;20814;-70
2021/04/19 06:59:19;;;;;;;17.43;15.93;;;9.50;99.90;;;;;;5069091;28;20946;-70
2021/04/19 07:01:50;;;;;;;17.37;15.37;;;9.50;99.90;;;;;;5069176;28;20421;-70
2021/04/19 07:04:22;;;;;;;18.00;16.23;;;9.50;99.90;;;;;;5069418;28;20404;-70
2021/04/19 07:06:49;;;;;;;17.87;16.27;;;9.40;99.90;;;;;;5073202;28;20421;-70
2021/04/19 07:14:33;;;;;;;19.10;16.30;;;9.40;99.90;;;;;;5110969;27;20509;-71
2021/04/19 07:16:59;;;;;;;17.40;15.70;;;9.60;99.90;;;;;;5111081;28;20472;-71
2021/04/19 07:19:25;;;;;;;14.80;13.30;;;9.70;99.90;;;;;;5111185;28;20823;-70
2021/04/19 07:21:52;;;;;;;14.67;13.37;;;9.80;99.90;;;;;;5110831;28;20169;-70
2021/04/19 07:24:18;;;;;;;13.83;12.60;;;9.90;99.90;;;;;;5103547;28;20201;-71
2021/04/19 07:26:45;;;;;;;13.30;11.93;;;10.00;99.90;;;;;;5090759;28;20397;-70
2021/04/19 07:29:13;;;;;;;12.53;11.40;;;10.20;99.90;;;;;;5090108;28;20200;-70
2021/04/19 07:31:56;;;;;;;14.43;13.03;;;10.30;99.90;;;;;;5090221;28;20471;-71
2021/04/19 07:36:59;;;;;;;13.00;11.90;;;10.40;99.90;;;;;;5152661;27;20570;-70
2021/04/19 07:39:29;;;;;;;14.07;12.70;;;10.70;99.90;;;;;;5153147;27;20893;-70
2021/04/19 07:41:57;;;;;;;12.67;11.47;;;10.80;99.90;;;;;;5152072;27;20392;-70
2021/04/19 07:44:45;;;;;;;12.67;11.37;;;10.90;99.90;;;;;;5152040;27;20848;-70
2021/04/19 07:50:20;;;;;;;8.03;7.33;;;11.20;99.90;;;;;;5131602;27;20504;-75
2021/04/19 07:52:55;;;;;;;8.70;7.93;;;11.10;99.90;;;;;;5130931;28;20412;-74
2021/04/19 07:55:28;;;;;;;8.47;6.93;;;11.10;99.90;;;;;;5131035;28;20387;-74
2021/04/19 07:57:54;;;;;;;6.43;5.93;;;11.20;99.90;;;;;;5125715;28;20422;-74
2021/04/19 08:03:14;;;;;;;5.20;4.70;;;11.30;99.90;;;;;;5110510;27;20550;-74
2021/04/19 08:05:51;;;;;;;5.57;5.07;;;11.30;99.90;;;;;;5110603;28;20857;-74
2021/04/19 08:08:28;;;;;;;4.90;4.50;;;11.50;99.90;;;;;;5110763;28;20449;-75
2021/04/19 08:11:06;;;;;;;6.23;5.37;;;11.70;99.90;;;;;;5110601;28;20408;-74
2021/04/19 08:13:31;;;;;;;5.00;4.53;;;11.90;99.90;;;;;;5110758;28;20892;-74
2021/04/19 08:19:04;;;;;;;5.23;4.73;;;12.20;99.90;;;;;;5090317;28;21088;-71
2021/04/19 08:21:32;;;;;;;4.40;4.00;;;12.30;99.90;;;;;;5091517;28;20388;-72
2021/04/19 08:24:15;;;;;;;3.77;3.47;;;12.40;99.90;;;;;;5090606;28;20912;-72
2021/04/19 08:26:59;;;;;;;3.80;3.50;;;12.40;99.90;;;;;;5090356;28;20389;-72
2021/04/19 08:29:43;;;;;;;4.67;3.30;;;12.50;99.90;;;;;;5090339;28;20408;-71
2021/04/19 08:32:09;;;;;;;4.40;4.00;;;12.50;99.90;;;;;;5083306;28;20836;-71
2021/04/19 08:34:35;;;;;;;4.93;3.87;;;12.60;99.90;;;;;;5070183;28;20388;-72
2021/04/19 08:37:02;;;;;;;3.73;3.43;;;12.70;99.90;;;;;;5070835;28;21042;-72
2021/04/19 08:39:29;;;;;;;4.47;3.80;;;12.80;99.90;;;;;;5069800;28;20387;-71
2021/04/19 08:41:56;;;;;;;10.80;6.67;;;12.90;99.90;;;;;;5069784;28;20418;-71
2021/04/19 08:44:22;;;;;;;6.50;5.90;;;13.00;99.90;;;;;;5069683;28;20405;-71
2021/04/19 08:46:48;;;;;;;10.33;7.00;;;13.10;99.90;;;;;;5069850;28;20467;-71
2021/04/19 08:49:13;;;;;;;5.10;4.37;;;13.20;99.90;;;;;;5070623;28;20421;-72
2021/04/19 08:51:39;;;;;;;6.17;5.13;;;13.20;99.90;;;;;;5070478;28;20178;-72
2021/04/19 08:54:05;;;;;;;6.33;5.47;;;13.30;99.90;;;;;;5069397;28;20451;-71
2021/04/19 08:56:32;;;;;;;4.43;4.03;;;13.30;99.90;;;;;;5069459;28;20398;-71
2021/04/19 08:59:00;;;;;;;4.07;3.70;;;13.40;99.90;;;;;;5069279;28;20266;-71
2021/04/19 09:01:29;;;;;;;3.80;3.50;;;13.50;99.90;;;;;;5069409;28;20390;-71
2021/04/19 09:04:04;;;;;;;5.63;3.10;;;13.60;99.90;;;;;;5069580;28;20394;-71
2021/04/19 09:06:46;;;;;;;4.20;3.80;;;13.60;99.90;;;;;;5070148;28;20406;-71
2021/04/19 09:09:32;;;;;;;3.90;3.60;;;13.80;99.90;;;;;;5069260;28;20862;-71
2021/04/19 09:12:18;;;;;;;4.10;3.43;;;13.80;99.90;;;;;;5069016;28;20890;-72
2021/04/19 09:14:44;;;;;;;4.27;3.70;;;13.80;99.90;;;;;;5068170;28;20405;-71
2021/04/19 09:17:21;;;;;;;3.80;3.50;;;13.70;99.90;;;;;;5068924;28;20823;-71
2021/04/19 09:19:55;;;;;;;3.50;2.90;;;13.60;99.90;;;;;;5069767;28;20182;-71
2021/04/19 09:22:20;;;;;;;3.87;3.53;;;13.50;99.90;;;;;;5069331;28;20734;-71
2021/04/19 09:27:44;;;;;;;3.80;3.40;;;13.40;99.90;;;;;;5110928;27;20501;-71
2021/04/19 09:30:28;;;;;;;3.60;3.30;;;13.70;99.90;;;;;;5110885;28;20380;-71
2021/04/19 09:35:49;;;;;;;3.87;3.57;;;14.00;99.90;;;;;;5110926;27;21038;-70
2021/04/19 09:51:27;;;;;;;3.30;3.00;;;15.00;99.90;;;;;;5131278;27;20878;-71
2021/04/19 09:56:49;;;;;;;3.13;2.83;;;14.90;99.90;;;;;;5129661;27;21048;-70
2021/04/19 09:59:20;;;;;;;3.53;3.23;;;15.10;99.90;;;;;;5110718;28;20780;-70
2021/04/19 10:01:52;;;;;;;3.33;3.00;;;15.10;99.90;;;;;;5110872;28;20401;-70
2021/04/19 10:04:19;;;;;;;3.00;2.80;;;15.20;99.90;;;;;;5111248;28;20420;-71
2021/04/19 10:06:50;;;;;;;5.83;3.53;;;15.10;99.90;;;;;;5110627;28;20437;-71
2021/04/19 10:09:21;;;;;;;4.63;3.27;;;14.90;99.90;;;;;;5110815;28;20753;-71
2021/04/19 10:11:52;;;;;;;4.27;3.87;;;14.70;99.90;;;;;;5110413;28;20389;-70
2021/04/19 10:14:18;;;;;;;3.70;3.40;;;14.50;99.90;;;;;;5110093;28;20400;-70
2021/04/19 10:16:47;;;;;;;4.13;3.30;;;14.30;99.90;;;;;;5110865;28;20831;-70
2021/04/19 10:19:22;;;;;;;4.50;3.60;;;14.00;99.90;;;;;;5110524;28;20393;-70
2021/04/19 10:24:37;;;;;;;4.37;3.97;;;13.50;99.90;;;;;;5131401;27;20572;-71
2021/04/19 10:27:04;;;;;;;4.93;3.53;;;13.50;99.90;;;;;;5131570;28;20388;-71
2021/04/19 10:29:30;;;;;;;4.73;4.20;;;13.40;99.90;;;;;;5131177;28;20398;-70
2021/04/19 10:31:57;;;;;;;5.27;3.77;;;13.50;99.90;;;;;;5118324;28;20396;-71
2021/04/19 10:34:26;;;;;;;4.50;4.10;;;13.60;99.90;;;;;;5110859;28;20868;-70
2021/04/19 10:36:57;;;;;;;6.20;4.50;;;13.80;99.90;;;;;;5110630;28;20380;-70
2021/04/19 10:39:26;;;;;;;3.63;3.33;;;14.00;99.90;;;;;;5110958;28;20418;-71
2021/04/19 10:41:54;;;;;;;4.67;4.20;;;14.10;99.90;;;;;;5110523;28;20377;-71
2021/04/19 10:44:33;;;;;;;8.13;4.33;;;14.20;99.90;;;;;;5112046;28;20481;-71
2021/04/19 10:46:58;;;;;;;4.57;3.73;;;14.20;99.90;;;;;;5111320;28;20411;-71
2021/04/19 10:49:26;;;;;;;4.33;3.87;;;14.30;99.90;;;;;;5111021;28;20395;-70
2021/04/19 10:51:54;;;;;;;4.40;4.00;;;14.30;99.90;;;;;;5110484;28;20151;-70
2021/04/19 10:54:26;;;;;;;4.07;3.70;;;14.40;99.90;;;;;;5110471;28;20521;-70
2021/04/19 10:56:51;;;;;;;4.47;3.90;;;14.30;99.90;;;;;;5110332;28;20388;-70
2021/04/19 10:59:18;;;;;;;4.40;4.00;;;14.30;99.90;;;;;;5110117;28;20431;-70
2021/04/19 11:01:45;;;;;;;4.70;4.23;;;14.20;99.90;;;;;;5111050;28;20170;-71
2021/04/19 11:04:11;;;;;;;5.57;4.87;;;14.10;99.90;;;;;;5109840;28;20436;-70
2021/04/19 11:06:38;;;;;;;4.47;4.07;;;14.10;99.90;;;;;;5129610;28;20411;-70
2021/04/19 11:09:06;;;;;;;4.97;4.13;;;14.20;99.90;;;;;;5130830;28;20402;-71
2021/04/19 11:11:42;;;;;;;5.00;4.13;;;14.20;99.90;;;;;;5130965;27;20416;-71
2021/04/19 11:19:46;;;;;;;4.40;4.00;;;14.50;99.90;;;;;;5131431;27;20557;-71
2021/04/19 11:27:53;;;;;;;6.87;6.23;;;14.90;99.90;;;;;;5110969;27;20555;-72
2021/04/19 11:33:19;;;;;;;4.93;4.20;;;15.10;99.90;;;;;;5110801;27;20923;-70
2021/04/19 11:35:47;;;;;;;8.40;5.13;;;15.40;99.90;;;;;;5096305;28;20403;-71
2021/04/19 11:43:36;;;;;;;7.37;6.73;;;15.50;99.90;;;;;;5091393;28;20578;-71
2021/04/19 11:48:40;;;;;;;6.87;6.27;;;15.40;99.90;;;;;;5131323;27;21103;-70
2021/04/19 11:51:07;;;;;;;6.53;5.93;;;15.20;99.90;;;;;;5131466;28;20433;-70
2021/04/19 11:53:35;;;;;;;7.33;5.70;;;15.10;99.90;;;;;;5131213;28;20435;-70
2021/04/19 11:56:03;;;;;;;6.50;5.90;;;15.10;99.90;;;;;;5125119;28;20419;-70
2021/04/19 11:58:28;;;;;;;7.43;6.70;;;15.10;99.90;;;;;;5111682;28;20483;-71
2021/04/19 12:00:55;;;;;;;8.33;7.47;;;15.10;99.90;;;;;;5110991;28;20395;-71
2021/04/19 12:03:21;;;;;;;19.83;7.50;;;15.20;99.90;;;;;;5110623;28;20180;-71
2021/04/19 12:05:47;;;;;;;13.00;8.03;;;15.20;99.90;;;;;;5110731;28;20396;-70
2021/04/19 12:08:13;;;;;;;8.00;7.30;;;15.30;99.90;;;;;;5110309;28;20442;-71
2021/04/19 12:10:39;;;;;;;9.20;7.10;;;15.40;99.90;;;;;;5110402;28;20157;-70
2021/04/19 12:13:05;;;;;;;7.80;7.00;;;15.50;99.90;;;;;;5117989;28;20215;-71
2021/04/19 12:15:32;;;;;;;8.93;8.03;;;15.50;99.90;;;;;;5130879;28;20392;-71
2021/04/19 12:17:57;;;;;;;9.67;8.70;;;15.60;99.90;;;;;;5131021;27;20169;-71
2021/04/19 12:20:23;;;;;;;8.83;7.93;;;15.60;99.90;;;;;;5130871;28;20410;-70
2021/04/19 12:22:49;;;;;;;9.80;8.80;;;15.50;99.90;;;;;;5130706;27;20184;-70
2021/04/19 12:25:15;;;;;;;9.00;8.10;;;15.50;99.90;;;;;;5130878;28;20169;-70
2021/04/19 12:27:41;;;;;;;9.53;8.53;;;15.40;99.90;;;;;;5132026;28;21026;-71
2021/04/19 12:30:08;;;;;;;10.20;9.13;;;15.30;99.90;;;;;;5129976;28;20180;-71
2021/04/19 12:32:34;;;;;;;10.57;9.47;;;15.20;99.90;;;;;;5130548;28;20461;-71
2021/04/19 12:34:59;;;;;;;8.97;8.13;;;15.20;99.90;;;;;;5130268;28;20891;-71
2021/04/19 12:37:25;;;;;;;10.93;7.77;;;15.10;99.90;;;;;;5130460;28;20160;-71
2021/04/19 12:39:51;;;;;;;9.60;8.40;;;14.90;99.90;;;;;;5130384;28;20167;-71
2021/04/19 12:42:17;;;;;;;8.23;7.53;;;14.80;99.90;;;;;;5131769;28;20163;-71
2021/04/19 12:44:42;;;;;;;10.40;9.50;;;14.70;99.90;;;;;;5130323;28;20175;-71
2021/04/19 12:47:08;;;;;;;14.03;9.30;;;14.70;99.90;;;;;;5129313;28;20986;-70
2021/04/19 12:49:33;;;;;;;11.77;10.13;;;14.70;99.90;;;;;;5130234;28;20608;-70
2021/04/19 12:51:59;;;;;;;10.00;9.07;;;14.80;99.90;;;;;;5130335;27;20557;-70
2021/04/19 12:54:25;;;;;;;9.20;8.20;;;14.80;99.90;;;;;;5129889;27;20258;-70
2021/04/19 12:56:50;;;;;;;9.20;8.27;;;14.90;99.90;;;;;;5131355;28;20444;-71
2021/04/19 12:59:16;;;;;;;9.10;8.20;;;15.00;99.90;;;;;;5120658;27;20187;-71
2021/04/19 13:01:43;;;;;;;9.53;8.53;;;15.20;99.90;;;;;;5112651;28;20246;-70
2021/04/19 13:04:13;;;;;;;9.37;7.57;;;15.30;99.90;;;;;;5096496;28;20194;-71
2021/04/19 13:06:39;;;;;;;7.80;7.00;;;15.40;99.90;;;;;;5095845;28;20438;-71
2021/04/19 13:09:07;;;;;;;8.40;7.30;;;15.50;99.90;;;;;;5095891;28;20413;-70
2021/04/19 13:11:32;;;;;;;7.13;6.53;;;15.60;99.90;;;;;;5097468;28;20419;-71
2021/04/19 13:13:58;;;;;;;6.20;5.60;;;15.70;99.90;;;;;;5095979;28;20393;-71
2021/04/19 13:16:24;;;;;;;7.67;6.13;;;15.70;99.90;;;;;;5095788;28;20191;-71
2021/04/19 13:18:49;;;;;;;8.47;7.67;;;15.60;99.90;;;;;;5095753;28;20162;-70
2021/04/19 13:21:15;;;;;;;8.90;8.00;;;15.50;99.90;;;;;;5096273;28;20216;-70
2021/04/19 13:23:40;;;;;;;9.17;8.27;;;15.40;99.90;;;;;;5095670;28;20220;-71
2021/04/19 13:26:06;;;;;;;7.97;7.27;;;15.20;99.90;;;;;;5096995;28;20243;-71
2021/04/19 13:28:32;;;;;;;10.60;7.57;;;15.10;99.90;;;;;;5095216;28;20665;-71
2021/04/19 13:30:57;;;;;;;9.03;8.10;;;14.90;99.90;;;;;;5095638;28;20164;-71
2021/04/19 13:33:23;;;;;;;10.33;8.50;;;14.80;99.90;;;;;;5095419;28;20238;-71
2021/04/19 13:35:48;;;;;;;8.10;7.30;;;14.70;99.90;;;;;;5095495;28;20149;-70
2021/04/19 13:38:14;;;;;;;8.97;7.33;;;14.80;99.90;;;;;;5096071;28;20643;-70
2021/04/19 13:40:39;;;;;;;8.13;7.43;;;14.90;99.90;;;;;;5096927;28;20172;-71
2021/04/19 13:43:05;;;;;;;9.93;7.93;;;15.00;99.90;;;;;;5095288;28;20182;-70
2021/04/19 13:45:31;;;;;;;8.33;7.53;;;15.10;99.90;;;;;;5095217;28;20186;-71
2021/04/19 13:47:56;;;;;;;9.20;7.20;;;15.20;99.90;;;;;;5095002;28;20621;-71
2021/04/19 13:50:22;;;;;;;8.30;7.60;;;15.20;99.90;;;;;;5095360;28;20529;-70
2021/04/19 13:52:48;;;;;;;7.37;6.73;;;15.20;99.90;;;;;;5095136;28;20626;-70
2021/04/19 13:55:15;;;;;;;6.87;6.27;;;15.20;99.90;;;;;;5095598;28;20602;-71
2021/04/19 13:57:41;;;;;;;7.13;6.53;;;15.10;99.90;;;;;;5095028;28;20225;-70
2021/04/19 14:00:08;;;;;;;7.40;6.70;;;15.00;99.90;;;;;;5094902;28;20424;-70